Time;durP1;ratioP1;P1;durP2;ratioP2;P2;SDS_P1;SDS_P2;PMS_P1;PMS_P2;Temp;Humidity;BMP_temperature;BMP_pressure;BME280_temperature;BME280_humidity;BME280_pressure;Samples;Min_cycle;Max_cycle;Signal;HPM_P1;HPM_P2
2023/12/29 00:02:32;;;;;;;13.40;2.67;;;7.30;99.90;;;;;;4871478;29;20048;-61
2023/12/29 00:05:00;;;;;;;17.92;1.75;;;7.30;99.90;;;;;;4870575;29;20045;-61
2023/12/29 00:07:28;;;;;;;16.90;1.85;;;7.30;99.90;;;;;;4857723;29;20053;-62
2023/12/29 00:09:56;;;;;;;16.75;2.95;;;7.30;99.90;;;;;;4855182;29;20054;-62
2023/12/29 00:12:24;;;;;;;24.30;5.00;;;7.40;99.90;;;;;;4858714;29;20041;-62
2023/12/29 00:14:52;;;;;;;14.88;1.80;;;7.30;99.90;;;;;;4869427;29;20062;-60
2023/12/29 00:17:20;;;;;;;18.95;2.67;;;7.30;99.90;;;;;;4865731;29;20057;-61
2023/12/29 00:19:49;;;;;;;13.93;2.53;;;7.30;99.90;;;;;;4860769;29;20068;-64
2023/12/29 00:22:17;;;;;;;20.35;2.58;;;7.20;99.90;;;;;;4856543;29;20379;-60
2023/12/29 00:24:45;;;;;;;23.83;4.13;;;7.20;99.90;;;;;;4864915;29;20120;-61
2023/12/29 00:27:13;;;;;;;19.30;2.88;;;7.20;99.90;;;;;;4857499;29;20053;-62
2023/12/29 00:29:41;;;;;;;16.40;2.05;;;7.20;99.90;;;;;;4869508;29;20514;-61
2023/12/29 00:32:10;;;;;;;12.43;1.98;;;7.20;99.90;;;;;;4871607;29;20057;-60
2023/12/29 00:34:38;;;;;;;17.77;2.53;;;7.20;99.90;;;;;;4869992;29;20049;-63
2023/12/29 00:37:08;;;;;;;13.95;2.22;;;7.20;99.90;;;;;;4860680;29;20465;-61
2023/12/29 00:39:39;;;;;;;20.55;2.28;;;7.20;99.90;;;;;;4861083;29;20054;-60
2023/12/29 00:42:08;;;;;;;22.67;3.80;;;7.20;99.90;;;;;;4866594;29;20490;-61
2023/12/29 00:44:36;;;;;;;18.85;2.75;;;7.20;99.90;;;;;;4856869;29;20057;-62
2023/12/29 00:47:07;;;;;;;6.20;1.85;;;7.10;99.90;;;;;;4864861;29;20057;-61
2023/12/29 00:49:39;;;;;;;20.35;2.58;;;7.10;99.90;;;;;;4871719;29;20422;-61
2023/12/29 00:52:07;;;;;;;19.80;2.72;;;7.00;99.90;;;;;;4871310;29;20510;-61
2023/12/29 00:54:36;;;;;;;11.15;1.50;;;7.00;99.90;;;;;;4864317;29;20049;-61
2023/12/29 00:57:04;;;;;;;13.05;1.67;;;7.00;99.90;;;;;;4862760;29;20041;-60
2023/12/29 00:59:38;;;;;;;17.80;2.10;;;6.90;99.90;;;;;;4864600;29;20052;-60
2023/12/29 01:02:08;;;;;;;20.85;3.53;;;6.90;99.90;;;;;;4862408;29;20452;-61
2023/12/29 01:04:39;;;;;;;13.82;2.35;;;6.90;99.90;;;;;;4848800;29;20057;-61
2023/12/29 01:07:07;;;;;;;17.15;2.20;;;6.90;99.90;;;;;;4854123;29;20053;-61
2023/12/29 01:09:40;;;;;;;10.57;2.00;;;6.90;99.90;;;;;;4863387;29;20049;-60
2023/12/29 01:12:08;;;;;;;14.40;3.15;;;6.90;99.90;;;;;;4859656;29;20175;-62
2023/12/29 01:14:37;;;;;;;16.10;2.97;;;6.80;99.90;;;;;;4868562;29;20045;-61
2023/12/29 01:17:05;;;;;;;20.77;3.83;;;6.80;99.90;;;;;;4869274;29;20038;-61
2023/12/29 01:19:34;;;;;;;23.20;2.78;;;6.80;99.90;;;;;;4860908;29;20489;-61
2023/12/29 01:22:04;;;;;;;15.02;2.45;;;6.80;99.90;;;;;;4862268;29;20049;-62
2023/12/29 01:24:32;;;;;;;18.20;1.95;;;6.70;99.90;;;;;;4867375;29;20052;-60
2023/12/29 01:27:12;;;;;;;11.55;2.08;;;6.80;99.90;;;;;;4867158;29;20049;-62
2023/12/29 01:29:41;;;;;;;16.73;3.53;;;6.70;99.90;;;;;;4860015;29;20064;-60
2023/12/29 01:32:10;;;;;;;23.25;3.40;;;6.80;99.90;;;;;;4865782;29;20049;-62
2023/12/29 01:34:39;;;;;;;15.73;2.45;;;6.80;99.90;;;;;;4868435;29;20434;-61
2023/12/29 01:37:08;;;;;;;18.50;2.28;;;6.90;99.90;;;;;;4848898;29;20067;-61
2023/12/29 01:39:37;;;;;;;;;;;6.90;99.90;;;;;;4873762;29;20383;-61
2023/12/29 01:42:05;;;;;;;32.42;3.92;;;6.90;99.90;;;;;;4857849;29;19924;-61
2023/12/29 01:44:34;;;;;;;17.08;3.92;;;7.00;99.90;;;;;;4868765;29;20525;-61
2023/12/29 01:47:05;;;;;;;15.32;2.00;;;7.00;99.90;;;;;;4861565;29;20418;-61
2023/12/29 01:49:34;;;;;;;21.45;2.40;;;7.00;99.90;;;;;;4854677;29;20060;-62
2023/12/29 01:52:03;;;;;;;20.15;3.35;;;7.00;99.90;;;;;;4871255;29;20041;-61
2023/12/29 01:54:37;;;;;;;18.02;2.45;;;7.00;99.90;;;;;;4862576;29;20061;-61
2023/12/29 01:57:08;;;;;;;17.20;2.83;;;7.00;99.90;;;;;;4856583;29;20057;-64
2023/12/29 01:59:38;;;;;;;15.73;2.72;;;7.00;99.90;;;;;;4866265;29;20056;-61
2023/12/29 02:02:06;;;;;;;21.45;2.00;;;7.00;99.90;;;;;;4856092;29;20329;-64
2023/12/29 02:04:36;;;;;;;16.02;2.40;;;6.90;99.90;;;;;;4861546;29;20044;-67
2023/12/29 02:07:06;;;;;;;30.70;3.67;;;6.90;99.90;;;;;;4867671;29;20056;-64
2023/12/29 02:09:34;;;;;;;23.23;2.58;;;6.90;99.90;;;;;;4860895;29;20045;-67
2023/12/29 02:12:02;;;;;;;16.50;2.38;;;6.90;99.90;;;;;;4859387;29;20057;-65
2023/12/29 02:14:31;;;;;;;22.58;2.22;;;6.80;99.90;;;;;;4878476;29;20041;-64
2023/12/29 02:17:21;;;;;;;9.32;1.95;;;6.80;99.90;;;;;;4875194;29;20044;-61
2023/12/29 02:19:51;;;;;;;23.00;2.47;;;6.80;99.90;;;;;;4861526;29;20061;-61
2023/12/29 02:22:19;;;;;;;18.30;2.50;;;6.80;99.90;;;;;;4868992;29;20045;-60
2023/12/29 02:24:50;;;;;;;11.30;1.95;;;6.80;99.90;;;;;;4869790;29;20045;-60
2023/12/29 02:27:54;;;;;;;14.48;1.88;;;6.90;99.90;;;;;;4876007;29;20043;-68
2023/12/29 02:30:41;;;;;;;10.07;1.30;;;6.50;99.90;;;;;;4871934;29;20045;-68
2023/12/29 02:33:17;;;;;;;11.90;1.40;;;6.90;99.90;;;;;;4862564;29;20057;-69
2023/12/29 02:35:49;;;;;;;23.75;2.60;;;6.90;99.90;;;;;;4864353;29;20386;-63
2023/12/29 02:38:17;;;;;;;14.80;1.92;;;6.90;99.90;;;;;;4870168;29;20056;-63
2023/12/29 02:40:46;;;;;;;15.80;2.22;;;6.90;99.90;;;;;;4869223;29;20048;-62
2023/12/29 02:43:15;;;;;;;;;;;6.90;99.90;;;;;;4871507;29;20045;-62
2023/12/29 02:45:43;;;;;;;6.63;1.33;;;6.90;99.90;;;;;;4861690;29;19928;-61
2023/12/29 02:48:11;;;;;;;9.82;1.42;;;6.90;99.90;;;;;;4875225;29;20045;-61
2023/12/29 02:50:39;;;;;;;9.13;1.88;;;6.90;99.90;;;;;;4876013;29;20052;-62
2023/12/29 02:53:08;;;;;;;21.13;2.20;;;7.00;99.90;;;;;;4878967;29;20049;-63
2023/12/29 02:55:37;;;;;;;15.40;1.63;;;7.00;99.90;;;;;;4875278;29;20041;-61
2023/12/29 02:58:05;;;;;;;17.58;2.40;;;7.00;99.90;;;;;;4863831;29;20034;-62
2023/12/29 03:00:33;;;;;;;21.15;2.33;;;7.00;99.90;;;;;;4872341;29;20405;-61
2023/12/29 03:03:02;;;;;;;21.00;3.13;;;7.00;99.90;;;;;;4874232;29;20049;-61
2023/12/29 03:05:30;;;;;;;15.05;2.28;;;7.00;99.90;;;;;;4865598;29;20041;-62
2023/12/29 03:07:58;;;;;;;11.88;2.33;;;6.90;99.90;;;;;;4866522;29;20049;-67
2023/12/29 03:10:26;;;;;;;14.40;1.92;;;6.90;99.90;;;;;;4876135;29;20056;-66
2023/12/29 03:12:55;;;;;;;13.93;1.65;;;6.90;99.90;;;;;;4867443;29;20057;-61
2023/12/29 03:15:24;;;;;;;11.43;1.92;;;6.90;99.90;;;;;;4868225;29;20049;-61
2023/12/29 03:17:52;;;;;;;15.07;1.60;;;6.80;99.90;;;;;;4871621;29;20052;-61
2023/12/29 03:20:20;;;;;;;29.30;2.45;;;6.80;99.90;;;;;;4878183;29;20049;-62
2023/12/29 03:22:48;;;;;;;16.92;2.03;;;6.70;99.90;;;;;;4875182;29;20045;-61
2023/12/29 03:25:16;;;;;;;13.75;1.58;;;6.70;99.90;;;;;;4864808;29;20049;-61
2023/12/29 03:27:44;;;;;;;15.27;2.30;;;6.70;99.90;;;;;;4871671;29;20552;-61
2023/12/29 03:30:13;;;;;;;17.40;1.80;;;6.70;99.90;;;;;;4873085;29;20059;-62
2023/12/29 03:32:43;;;;;;;14.68;1.92;;;6.70;99.90;;;;;;4861729;29;20044;-62
2023/12/29 03:35:12;;;;;;;9.63;1.65;;;6.70;99.90;;;;;;4873989;29;20064;-61
2023/12/29 03:37:42;;;;;;;15.55;2.15;;;6.70;99.90;;;;;;4861667;29;20045;-61
2023/12/29 03:40:10;;;;;;;16.13;2.38;;;6.70;99.90;;;;;;4873425;29;20056;-61
2023/12/29 03:42:39;;;;;;;16.75;1.80;;;6.70;99.90;;;;;;4865593;29;20045;-61
2023/12/29 03:45:07;;;;;;;17.30;3.65;;;6.70;99.90;;;;;;4863252;29;20045;-64
2023/12/29 03:47:36;;;;;;;13.98;2.22;;;6.60;99.90;;;;;;4875116;29;20045;-61
2023/12/29 03:50:05;;;;;;;12.40;2.47;;;6.70;99.90;;;;;;4875981;29;20045;-61
2023/12/29 03:52:33;;;;;;;10.65;2.05;;;6.60;99.90;;;;;;4862389;29;20045;-61
2023/12/29 03:55:00;;;;;;;13.85;2.25;;;6.60;99.90;;;;;;4863716;29;20049;-62
2023/12/29 03:57:28;;;;;;;16.48;2.25;;;6.60;99.90;;;;;;4862029;29;20454;-62
2023/12/29 03:59:56;;;;;;;18.13;2.17;;;6.60;99.90;;;;;;4870418;29;20072;-61
2023/12/29 04:02:25;;;;;;;24.13;3.00;;;6.60;99.90;;;;;;4860827;29;20528;-61
2023/12/29 04:04:53;;;;;;;15.68;1.98;;;6.60;99.90;;;;;;4874947;29;20474;-61
2023/12/29 04:07:21;;;;;;;18.42;3.42;;;6.50;99.90;;;;;;4860538;29;20056;-61
2023/12/29 04:09:49;;;;;;;15.88;1.67;;;6.50;99.90;;;;;;4861088;29;20064;-62
2023/12/29 04:12:17;;;;;;;14.90;2.00;;;6.40;99.90;;;;;;4862426;29;20414;-60
2023/12/29 04:14:45;;;;;;;14.25;2.85;;;6.30;99.90;;;;;;4877438;29;20040;-62
2023/12/29 04:17:14;;;;;;;9.88;1.95;;;6.30;99.90;;;;;;4871914;29;20049;-61
2023/12/29 04:19:42;;;;;;;18.52;2.70;;;6.30;99.90;;;;;;4882812;29;20514;-61
2023/12/29 04:22:10;;;;;;;16.45;2.55;;;6.20;99.90;;;;;;4859632;29;20045;-60
2023/12/29 04:24:39;;;;;;;13.82;2.10;;;6.20;99.90;;;;;;4859390;29;20475;-66
2023/12/29 04:27:07;;;;;;;13.25;2.28;;;6.10;99.90;;;;;;4866210;29;20056;-61
2023/12/29 04:29:35;;;;;;;16.92;2.25;;;6.10;99.90;;;;;;4869757;29;20049;-61
2023/12/29 04:32:03;;;;;;;16.58;2.13;;;6.00;99.90;;;;;;4865489;29;20057;-62
2023/12/29 04:34:31;;;;;;;22.55;2.45;;;6.00;99.90;;;;;;4861922;29;20053;-61
2023/12/29 04:36:58;;;;;;;11.23;1.73;;;6.00;99.90;;;;;;4861222;29;20056;-61
2023/12/29 04:39:26;;;;;;;17.95;2.42;;;6.00;99.90;;;;;;4858740;29;20057;-62
2023/12/29 04:41:55;;;;;;;14.57;2.85;;;6.00;99.90;;;;;;4871589;29;20045;-63
2023/12/29 04:44:24;;;;;;;13.10;2.42;;;6.10;99.90;;;;;;4860218;29;20057;-61
2023/12/29 04:46:52;;;;;;;16.65;2.17;;;6.10;99.90;;;;;;4866044;29;20509;-62
2023/12/29 04:49:24;;;;;;;11.38;1.70;;;6.10;99.90;;;;;;4869437;29;20048;-62
2023/12/29 04:51:52;;;;;;;14.63;1.80;;;6.20;99.90;;;;;;4861197;29;20057;-62
2023/12/29 04:54:20;;;;;;;18.08;2.53;;;6.20;99.90;;;;;;4860899;29;20049;-61
2023/12/29 04:56:49;;;;;;;23.90;2.17;;;6.20;99.90;;;;;;4863735;29;20049;-68
2023/12/29 04:59:16;;;;;;;13.45;1.95;;;6.20;99.90;;;;;;4861352;29;20041;-60
2023/12/29 05:01:44;;;;;;;21.58;2.55;;;6.20;99.90;;;;;;4859272;29;20049;-62
2023/12/29 05:04:14;;;;;;;17.45;1.85;;;6.20;99.90;;;;;;4862292;29;20050;-64
2023/12/29 05:06:42;;;;;;;12.43;2.22;;;6.20;99.90;;;;;;4860126;29;20650;-67
2023/12/29 05:09:11;;;;;;;12.57;1.70;;;6.20;99.90;;;;;;4872285;29;20053;-64
2023/12/29 05:11:40;;;;;;;13.25;2.03;;;6.20;99.90;;;;;;4862230;29;20069;-63
2023/12/29 05:14:08;;;;;;;20.05;2.70;;;6.20;99.90;;;;;;4874112;29;20057;-67
2023/12/29 05:16:36;;;;;;;13.57;1.42;;;6.20;99.90;;;;;;4868451;29;20056;-61
2023/12/29 05:19:04;;;;;;;10.48;1.95;;;6.10;99.90;;;;;;4874130;29;20396;-67
2023/12/29 05:21:33;;;;;;;10.63;1.33;;;6.10;99.90;;;;;;4859039;29;20049;-62
2023/12/29 05:24:01;;;;;;;7.88;1.30;;;6.10;99.90;;;;;;4857640;29;20061;-63
2023/12/29 05:26:29;;;;;;;16.83;2.30;;;6.10;99.90;;;;;;4870619;29;20053;-61
2023/12/29 05:28:56;;;;;;;19.48;1.98;;;6.20;99.90;;;;;;4877072;29;20045;-62
2023/12/29 05:31:24;;;;;;;20.70;1.95;;;6.20;99.90;;;;;;4871510;29;20451;-64
2023/12/29 05:33:54;;;;;;;10.38;1.75;;;6.20;99.90;;;;;;4874458;29;20045;-63
2023/12/29 05:36:22;;;;;;;13.43;1.70;;;6.20;99.90;;;;;;4867970;29;20402;-67
2023/12/29 05:38:51;;;;;;;12.98;2.00;;;6.20;99.90;;;;;;4862370;29;20053;-64
2023/12/29 05:41:19;;;;;;;11.23;1.42;;;6.20;99.90;;;;;;4872624;29;20406;-64
2023/12/29 05:43:47;;;;;;;11.18;1.85;;;6.20;99.90;;;;;;4858716;29;20049;-62
2023/12/29 05:46:15;;;;;;;14.75;1.98;;;6.10;99.90;;;;;;4861146;29;20057;-63
2023/12/29 05:48:43;;;;;;;13.57;1.55;;;6.20;99.90;;;;;;4853608;29;20049;-65
2023/12/29 05:51:13;;;;;;;11.25;2.10;;;6.10;99.90;;;;;;4855339;29;20053;-64
2023/12/29 05:53:41;;;;;;;11.23;2.20;;;6.10;99.90;;;;;;4856618;29;20061;-62
2023/12/29 05:56:12;;;;;;;11.95;1.63;;;6.00;99.90;;;;;;4864769;29;20049;-62
2023/12/29 05:58:42;;;;;;;8.70;0.82;;;5.90;99.90;;;;;;4862008;29;20045;-63
2023/12/29 06:01:10;;;;;;;;;;;6.00;99.90;;;;;;4855752;29;20482;-63
2023/12/29 06:03:38;;;;;;;15.48;3.75;;;5.90;99.90;;;;;;4854683;29;19930;-63
2023/12/29 06:06:06;;;;;;;8.35;1.88;;;5.90;99.90;;;;;;4856433;29;20049;-63
2023/12/29 06:08:34;;;;;;;19.38;2.22;;;5.90;99.90;;;;;;4867305;29;20049;-63
2023/12/29 06:11:02;;;;;;;11.50;1.55;;;5.90;99.90;;;;;;4863576;29;20049;-60
2023/12/29 06:13:29;;;;;;;16.30;1.40;;;5.90;99.90;;;;;;4865629;29;20602;-62
2023/12/29 06:15:57;;;;;;;8.52;1.40;;;5.90;99.90;;;;;;4856589;29;20057;-62
2023/12/29 06:18:25;;;;;;;13.27;1.92;;;5.90;99.90;;;;;;4853686;29;20042;-62
2023/12/29 06:20:53;;;;;;;10.68;1.38;;;5.80;99.90;;;;;;4862627;29;20049;-61
2023/12/29 06:23:21;;;;;;;10.70;0.95;;;5.90;99.90;;;;;;4863372;29;20049;-61
2023/12/29 06:25:50;;;;;;;12.00;1.77;;;5.90;99.90;;;;;;4869269;29;20080;-61
2023/12/29 06:28:18;;;;;;;9.63;2.13;;;5.90;99.90;;;;;;4854188;29;20048;-61
2023/12/29 06:30:46;;;;;;;11.90;2.17;;;5.90;99.90;;;;;;4856350;29;20049;-65
2023/12/29 06:33:14;;;;;;;14.52;2.00;;;5.80;99.90;;;;;;4852781;29;20061;-68
2023/12/29 06:35:42;;;;;;;16.40;1.70;;;5.80;99.90;;;;;;4854987;29;20050;-64
2023/12/29 06:38:10;;;;;;;17.17;2.15;;;5.80;99.90;;;;;;4854562;29;20068;-61
2023/12/29 06:40:38;;;;;;;14.30;1.63;;;5.80;99.90;;;;;;4858493;29;20072;-62
2023/12/29 06:43:06;;;;;;;14.75;2.20;;;5.80;99.90;;;;;;4867120;29;20065;-62
2023/12/29 06:45:35;;;;;;;11.38;1.38;;;5.70;99.90;;;;;;4862881;29;20064;-61
2023/12/29 06:48:03;;;;;;;14.77;2.15;;;5.70;99.90;;;;;;4854863;29;20641;-61
2023/12/29 06:50:31;;;;;;;28.33;2.10;;;5.70;99.90;;;;;;4852469;29;20053;-61
2023/12/29 06:52:59;;;;;;;13.68;2.88;;;5.70;99.90;;;;;;4860605;29;20053;-61
2023/12/29 06:55:27;;;;;;;11.50;1.95;;;5.70;99.90;;;;;;4865909;29;20048;-62
2023/12/29 06:57:55;;;;;;;9.18;1.60;;;5.70;99.90;;;;;;4864294;29;20053;-62
2023/12/29 07:00:24;;;;;;;22.45;2.25;;;5.70;99.90;;;;;;4860175;29;20060;-62
2023/12/29 07:02:52;;;;;;;10.82;1.73;;;5.70;99.90;;;;;;4862208;29;20410;-61
2023/12/29 07:05:20;;;;;;;18.98;2.28;;;5.70;99.90;;;;;;4866418;29;20070;-62
2023/12/29 07:07:48;;;;;;;17.38;1.95;;;5.60;99.90;;;;;;4860030;29;20049;-61
2023/12/29 07:10:16;;;;;;;17.92;2.63;;;5.60;99.90;;;;;;4862238;29;20410;-61
2023/12/29 07:12:45;;;;;;;17.98;2.20;;;5.60;99.90;;;;;;4867128;29;20049;-61
2023/12/29 07:15:15;;;;;;;7.22;1.38;;;5.50;99.90;;;;;;4861738;29;20069;-61
2023/12/29 07:17:43;;;;;;;11.02;2.17;;;5.40;99.90;;;;;;4860462;29;20056;-61
2023/12/29 07:20:11;;;;;;;13.32;1.95;;;5.40;99.90;;;;;;4871978;29;20047;-62
2023/12/29 07:22:40;;;;;;;23.80;1.95;;;5.40;99.90;;;;;;4864903;29;20056;-61
2023/12/29 07:25:08;;;;;;;16.88;1.50;;;5.40;99.90;;;;;;4870804;29;20053;-62
2023/12/29 07:27:36;;;;;;;10.82;1.00;;;5.40;99.90;;;;;;4872696;29;20052;-61
2023/12/29 07:30:06;;;;;;;15.75;1.58;;;5.30;99.90;;;;;;4858414;29;20045;-61
2023/12/29 07:32:34;;;;;;;12.35;2.67;;;5.40;99.90;;;;;;4869195;29;20049;-61
2023/12/29 07:35:02;;;;;;;13.50;2.05;;;5.40;99.90;;;;;;4856045;29;20064;-61
2023/12/29 07:37:30;;;;;;;16.02;1.73;;;5.30;99.90;;;;;;4860688;29;20521;-61
2023/12/29 07:39:58;;;;;;;14.02;1.90;;;5.30;99.90;;;;;;4861707;29;20518;-62
2023/12/29 07:42:27;;;;;;;9.88;1.45;;;5.20;99.90;;;;;;4871724;29;20605;-62
2023/12/29 07:44:56;;;;;;;17.40;1.88;;;5.30;99.90;;;;;;4866976;29;20049;-64
2023/12/29 07:47:24;;;;;;;12.13;1.60;;;5.30;99.90;;;;;;4865853;29;20038;-62
2023/12/29 07:49:51;;;;;;;16.58;2.35;;;5.30;99.90;;;;;;4867870;29;20049;-62
2023/12/29 07:52:19;;;;;;;12.70;1.63;;;5.30;99.90;;;;;;4872845;29;20049;-61
2023/12/29 07:54:47;;;;;;;8.05;1.98;;;5.30;99.90;;;;;;4869953;29;20841;-62
2023/12/29 07:57:15;;;;;;;9.10;1.73;;;5.40;99.90;;;;;;4862620;29;20041;-61
2023/12/29 07:59:43;;;;;;;14.55;1.20;;;5.40;99.90;;;;;;4862164;29;20053;-62
2023/12/29 08:02:11;;;;;;;15.60;1.67;;;5.50;99.90;;;;;;4871744;29;20090;-61
2023/12/29 08:04:39;;;;;;;13.55;1.65;;;5.50;99.90;;;;;;4855468;29;20057;-61
2023/12/29 08:07:07;;;;;;;11.57;1.60;;;5.50;99.90;;;;;;4863949;29;20060;-62
2023/12/29 08:09:35;;;;;;;10.25;1.35;;;5.50;99.90;;;;;;4867403;29;20040;-61
2023/12/29 08:12:04;;;;;;;14.88;1.92;;;5.50;99.90;;;;;;4876027;29;20049;-63
2023/12/29 08:14:33;;;;;;;19.13;1.73;;;5.60;99.90;;;;;;4863472;29;20053;-61
2023/12/29 08:17:00;;;;;;;17.52;2.58;;;5.60;99.90;;;;;;4873994;29;20049;-61
2023/12/29 08:19:28;;;;;;;16.13;2.28;;;5.70;99.90;;;;;;4865604;29;20375;-62
2023/12/29 08:21:56;;;;;;;21.70;2.13;;;5.60;99.90;;;;;;4859352;29;20050;-61
2023/12/29 08:24:24;;;;;;;15.68;2.33;;;5.70;99.90;;;;;;4858169;29;20402;-62
2023/12/29 08:26:53;;;;;;;16.55;2.35;;;5.60;99.90;;;;;;4864622;29;20044;-63
2023/12/29 08:29:22;;;;;;;16.10;1.98;;;5.70;99.90;;;;;;4867579;29;20517;-61
2023/12/29 08:31:50;;;;;;;14.52;1.52;;;5.70;99.90;;;;;;4855703;29;20438;-61
2023/12/29 08:34:17;;;;;;;16.42;1.75;;;5.70;99.90;;;;;;4868592;29;20045;-61
2023/12/29 08:36:47;;;;;;;14.15;2.28;;;5.70;99.90;;;;;;4858118;29;20057;-61
2023/12/29 08:39:15;;;;;;;13.88;2.05;;;5.60;99.90;;;;;;4858662;29;20049;-61
2023/12/29 08:41:43;;;;;;;15.32;3.00;;;5.60;99.90;;;;;;4858608;29;20067;-61
2023/12/29 08:44:11;;;;;;;15.82;2.13;;;5.60;99.90;;;;;;4863940;29;20053;-61
2023/12/29 08:46:39;;;;;;;18.33;2.30;;;5.60;99.90;;;;;;4872454;29;20057;-61
2023/12/29 08:49:07;;;;;;;11.63;2.35;;;5.50;99.90;;;;;;4864770;29;20056;-62
2023/12/29 08:51:36;;;;;;;18.08;1.90;;;5.50;99.90;;;;;;4855874;29;20050;-62
2023/12/29 08:54:05;;;;;;;19.48;3.30;;;5.50;99.90;;;;;;4857617;29;20049;-62
2023/12/29 08:56:33;;;;;;;20.20;2.13;;;5.50;99.90;;;;;;4871108;29;20053;-61
2023/12/29 08:59:00;;;;;;;15.38;1.50;;;5.50;99.90;;;;;;4855993;29;20614;-64
2023/12/29 09:01:30;;;;;;;15.18;2.30;;;5.50;99.90;;;;;;4869148;29;20049;-64
2023/12/29 09:03:58;;;;;;;9.77;1.50;;;5.50;99.90;;;;;;4862600;29;20053;-62
2023/12/29 09:06:26;;;;;;;22.33;1.75;;;5.50;99.90;;;;;;4861281;29;20049;-62
2023/12/29 09:08:54;;;;;;;29.88;3.25;;;5.50;99.90;;;;;;4868905;29;20397;-61
2023/12/29 09:11:22;;;;;;;12.48;2.17;;;5.40;99.90;;;;;;4868444;29;20049;-65
2023/12/29 09:13:50;;;;;;;20.88;2.05;;;5.40;99.90;;;;;;4856443;29;20050;-63
2023/12/29 09:16:18;;;;;;;19.35;2.90;;;5.40;99.90;;;;;;4861019;29;20056;-61
2023/12/29 09:18:46;;;;;;;18.67;2.72;;;5.40;99.90;;;;;;4855159;29;20061;-61
2023/12/29 09:21:14;;;;;;;14.68;2.33;;;5.40;99.90;;;;;;4855470;29;20621;-63
2023/12/29 09:23:42;;;;;;;17.13;3.25;;;5.50;99.90;;;;;;4860346;29;20683;-61
2023/12/29 09:26:11;;;;;;;18.70;2.50;;;5.50;99.90;;;;;;4855876;29;20664;-63
2023/12/29 09:28:45;;;;;;;24.60;2.53;;;5.50;99.90;;;;;;4855919;29;20045;-62
2023/12/29 09:31:13;;;;;;;17.27;2.63;;;5.60;99.90;;;;;;4857081;29;20068;-61
2023/12/29 09:33:41;;;;;;;18.23;2.72;;;5.60;99.90;;;;;;4858314;29;20056;-62
2023/12/29 09:36:10;;;;;;;21.75;2.47;;;5.60;99.90;;;;;;4875677;29;20064;-63
2023/12/29 09:38:38;;;;;;;13.70;2.63;;;5.60;99.90;;;;;;4860791;29;20527;-62
2023/12/29 09:41:13;;;;;;;15.23;2.10;;;5.70;99.90;;;;;;4855935;29;20056;-63
2023/12/29 09:43:44;;;;;;;17.38;1.70;;;5.70;99.90;;;;;;4858980;29;20072;-63
2023/12/29 09:46:18;;;;;;;6.53;1.10;;;5.80;99.90;;;;;;4857970;29;20049;-68
2023/12/29 09:48:47;;;;;;;13.98;1.23;;;5.80;99.90;;;;;;4857009;29;20049;-62
2023/12/29 09:51:17;;;;;;;21.20;2.47;;;5.90;99.90;;;;;;4865489;29;20053;-61
2023/12/29 09:53:47;;;;;;;19.73;2.50;;;5.90;99.90;;;;;;4858060;29;20052;-62
2023/12/29 09:56:16;;;;;;;22.13;2.25;;;5.90;99.90;;;;;;4869041;29;20640;-64
2023/12/29 09:58:47;;;;;;;23.98;2.10;;;6.00;99.90;;;;;;4860595;29;20049;-64
2023/12/29 10:01:19;;;;;;;11.50;1.88;;;6.00;99.90;;;;;;4857839;29;20048;-62
2023/12/29 10:03:50;;;;;;;15.95;2.67;;;6.10;99.90;;;;;;4862749;29;20068;-62
2023/12/29 10:06:25;;;;;;;12.40;2.28;;;6.10;99.90;;;;;;4867087;29;20523;-65
2023/12/29 10:08:54;;;;;;;8.98;1.95;;;6.10;99.90;;;;;;4855923;29;20068;-63
2023/12/29 10:11:23;;;;;;;16.50;2.13;;;6.20;99.90;;;;;;4858809;29;20056;-65
2023/12/29 10:13:57;;;;;;;16.20;2.22;;;6.30;99.90;;;;;;4858787;29;20315;-63
2023/12/29 10:16:32;;;;;;;15.20;1.70;;;6.30;99.90;;;;;;4860647;29;20049;-62
2023/12/29 10:19:18;;;;;;;14.10;1.95;;;6.40;99.90;;;;;;4852612;29;20513;-62
2023/12/29 10:22:16;;;;;;;14.93;3.00;;;6.40;99.90;;;;;;4861808;29;20049;-63
2023/12/29 10:24:46;;;;;;;16.23;2.15;;;6.50;99.90;;;;;;4849638;29;20457;-62
2023/12/29 10:27:15;;;;;;;10.50;1.30;;;6.50;99.90;;;;;;4865010;29;20048;-62
2023/12/29 10:29:43;;;;;;;10.63;1.83;;;6.50;99.90;;;;;;4863342;29;20053;-64
2023/12/29 10:32:10;;;;;;;11.00;1.40;;;6.50;99.90;;;;;;4858603;29;20518;-63
2023/12/29 10:34:38;;;;;;;13.60;1.38;;;6.60;99.90;;;;;;4855160;29;20053;-63
2023/12/29 10:37:13;;;;;;;10.30;1.65;;;6.60;99.90;;;;;;4857849;29;20046;-65
2023/12/29 10:39:56;;;;;;;18.40;2.65;;;6.60;99.90;;;;;;4865217;29;20054;-71
2023/12/29 10:42:25;;;;;;;8.25;1.75;;;6.60;99.90;;;;;;4862149;29;20067;-69
2023/12/29 10:45:08;;;;;;;15.07;1.27;;;6.60;99.90;;;;;;4876402;29;20049;-70
2023/12/29 10:47:36;;;;;;;9.63;1.52;;;6.70;99.90;;;;;;4867865;29;20053;-71
2023/12/29 10:50:05;;;;;;;14.65;1.50;;;6.70;99.90;;;;;;4873376;29;20053;-71
2023/12/29 10:52:33;;;;;;;14.07;1.95;;;6.80;99.90;;;;;;4865079;29;20045;-69
2023/12/29 10:55:06;;;;;;;14.65;1.98;;;6.80;99.90;;;;;;4869176;29;20058;-62
2023/12/29 10:57:38;;;;;;;15.48;2.00;;;6.80;99.90;;;;;;4861012;29;20053;-63
2023/12/29 11:00:07;;;;;;;19.90;2.30;;;6.90;99.90;;;;;;4861357;29;20505;-62
2023/12/29 11:02:36;;;;;;;10.23;2.22;;;7.00;99.90;;;;;;4863625;29;20052;-65
2023/12/29 11:05:06;;;;;;;12.73;1.65;;;7.00;99.90;;;;;;4863682;29;20054;-66
2023/12/29 11:07:39;;;;;;;9.57;1.40;;;7.10;99.90;;;;;;4857874;29;20044;-67
2023/12/29 11:10:09;;;;;;;16.35;1.58;;;7.20;99.90;;;;;;4857974;29;20049;-68
2023/12/29 11:12:38;;;;;;;21.55;2.47;;;7.20;99.90;;;;;;4869041;29;20057;-66
2023/12/29 11:15:08;;;;;;;10.82;1.50;;;7.30;99.90;;;;;;4864844;29;20366;-65
2023/12/29 11:17:36;;;;;;;11.95;2.25;;;7.40;99.90;;;;;;4875303;29;20053;-65
2023/12/29 11:20:05;;;;;;;5.28;1.17;;;7.50;99.90;;;;;;4874372;29;20503;-62
2023/12/29 11:22:34;;;;;;;18.52;2.65;;;7.60;99.90;;;;;;4861123;29;20060;-64
2023/12/29 11:25:04;;;;;;;12.57;1.40;;;7.60;99.90;;;;;;4873252;29;20052;-62
2023/12/29 11:27:32;;;;;;;12.15;1.83;;;7.70;99.90;;;;;;4874123;29;20049;-63
2023/12/29 11:30:03;;;;;;;7.65;1.52;;;7.70;99.90;;;;;;4858168;29;20068;-67
2023/12/29 11:32:51;;;;;;;12.63;2.05;;;7.80;99.90;;;;;;4860350;29;20057;-62
2023/12/29 11:35:30;;;;;;;14.20;2.65;;;7.80;99.90;;;;;;4855927;29;20061;-67
2023/12/29 11:38:13;;;;;;;;;;;7.80;99.90;;;;;;4863890;29;20052;-66
2023/12/29 11:40:46;;;;;;;13.30;1.80;;;7.80;99.90;;;;;;4866619;29;19935;-63
2023/12/29 11:43:16;;;;;;;4.65;1.25;;;7.80;99.90;;;;;;4868903;29;20060;-65
2023/12/29 11:45:45;;;;;;;12.43;1.50;;;7.80;99.90;;;;;;4858824;29;20049;-65
2023/12/29 11:48:51;;;;;;;15.35;1.60;;;7.80;99.90;;;;;;4864034;29;20057;-64
2023/12/29 11:51:29;;;;;;;15.10;1.90;;;7.80;99.90;;;;;;4857770;29;20041;-67
2023/12/29 11:53:58;;;;;;;13.15;2.25;;;7.80;99.90;;;;;;4870590;29;20060;-64
2023/12/29 11:56:53;;;;;;;12.35;1.33;;;8.00;99.90;;;;;;4857771;29;20506;-64
2023/12/29 11:59:27;;;;;;;13.10;2.30;;;8.30;99.90;;;;;;4854647;29;20057;-62
2023/12/29 12:01:57;;;;;;;5.57;1.13;;;8.60;99.90;;;;;;4841441;29;20065;-64
2023/12/29 12:04:44;;;;;;;6.57;1.42;;;8.90;99.90;;;;;;4871378;29;20064;-64
2023/12/29 12:07:16;;;;;;;9.30;1.30;;;9.10;99.90;;;;;;4861854;29;20069;-63
2023/12/29 12:09:44;;;;;;;6.78;1.17;;;9.20;99.90;;;;;;4859161;29;20052;-72
2023/12/29 12:12:13;;;;;;;7.18;1.13;;;9.30;99.90;;;;;;4858264;29;20068;-64
2023/12/29 12:14:50;;;;;;;10.32;1.50;;;9.20;99.90;;;;;;4876298;29;20064;-62
2023/12/29 12:17:35;;;;;;;8.57;0.98;;;9.30;99.90;;;;;;4867137;29;20046;-64
2023/12/29 12:20:10;;;;;;;10.85;1.10;;;9.20;99.90;;;;;;4875757;29;20053;-63
2023/12/29 12:22:41;;;;;;;7.97;1.30;;;9.10;99.90;;;;;;4861765;29;20486;-64
2023/12/29 12:25:11;;;;;;;7.93;1.50;;;9.00;99.90;;;;;;4874167;29;20060;-63
2023/12/29 12:27:40;;;;;;;12.95;1.45;;;8.80;99.90;;;;;;4859234;29;20494;-63
2023/12/29 12:30:10;;;;;;;11.73;1.38;;;8.70;99.90;;;;;;4875807;29;20403;-62
2023/12/29 12:32:39;;;;;;;15.27;2.03;;;8.60;99.90;;;;;;4866340;29;20045;-61
2023/12/29 12:35:15;;;;;;;14.38;1.80;;;8.50;99.90;;;;;;4858588;29;20061;-63
2023/12/29 12:37:47;;;;;;;13.43;1.60;;;8.30;99.90;;;;;;4850784;29;20057;-62
2023/12/29 12:40:27;;;;;;;12.70;1.40;;;8.30;99.90;;;;;;4854442;29;20037;-63
2023/12/29 12:42:55;;;;;;;6.85;1.35;;;8.20;99.90;;;;;;4867799;29;20044;-65
2023/12/29 12:45:27;;;;;;;13.75;1.67;;;8.10;99.90;;;;;;4874400;29;20045;-63
2023/12/29 12:48:03;;;;;;;6.72;1.58;;;8.10;99.90;;;;;;4873980;29;20494;-64
2023/12/29 12:50:32;;;;;;;8.25;1.35;;;8.10;99.90;;;;;;4875611;29;20049;-63
2023/12/29 12:53:05;;;;;;;6.55;1.20;;;8.00;99.90;;;;;;4873474;29;20060;-66
2023/12/29 12:55:35;;;;;;;9.75;1.50;;;8.00;99.90;;;;;;4864184;29;20068;-65
2023/12/29 12:58:05;;;;;;;16.17;2.05;;;7.90;99.90;;;;;;4866039;29;20433;-63
2023/12/29 13:00:33;;;;;;;13.40;2.10;;;7.90;99.90;;;;;;4875437;29;20064;-62
2023/12/29 13:03:02;;;;;;;15.23;1.80;;;7.90;99.90;;;;;;4871024;29;20049;-64
2023/12/29 13:05:31;;;;;;;12.95;2.08;;;7.90;99.90;;;;;;4856739;29;20045;-65